sensor_id;sensor_type;location;lat;lon;timestamp;P1;durP1;ratioP1;P2;durP2;ratioP2
46487;SDS011;32202;48.780;9.204;2022-08-01T00:00:26;3.65;;;2.22;;
46487;SDS011;32202;48.780;9.204;2022-08-01T00:02:52;2.95;;;2.40;;
46487;SDS011;32202;48.780;9.204;2022-08-01T00:05:18;2.80;;;2.30;;
46487;SDS011;32202;48.780;9.204;2022-08-01T00:07:44;5.85;;;2.60;;
46487;SDS011;32202;48.780;9.204;2022-08-01T00:10:10;4.00;;;2.45;;
46487;SDS011;32202;48.780;9.204;2022-08-01T00:12:38;2.83;;;2.35;;
46487;SDS011;32202;48.780;9.204;2022-08-01T00:15:04;6.28;;;2.60;;
46487;SDS011;32202;48.780;9.204;2022-08-01T00:17:33;5.30;;;2.38;;
46487;SDS011;32202;48.780;9.204;2022-08-01T00:19:58;3.25;;;2.17;;
46487;SDS011;32202;48.780;9.204;2022-08-01T00:22:24;3.25;;;2.40;;
46487;SDS011;32202;48.780;9.204;2022-08-01T00:24:50;3.67;;;2.40;;
46487;SDS011;32202;48.780;9.204;2022-08-01T00:27:15;4.65;;;2.60;;
46487;SDS011;32202;48.780;9.204;2022-08-01T00:29:41;3.35;;;2.20;;
46487;SDS011;32202;48.780;9.204;2022-08-01T00:32:07;3.90;;;2.35;;
46487;SDS011;32202;48.780;9.204;2022-08-01T00:34:32;6.05;;;2.17;;
46487;SDS011;32202;48.780;9.204;2022-08-01T00:36:58;3.28;;;2.47;;
46487;SDS011;32202;48.780;9.204;2022-08-01T00:39:24;3.53;;;2.15;;
46487;SDS011;32202;48.780;9.204;2022-08-01T00:41:49;3.05;;;2.20;;
46487;SDS011;32202;48.780;9.204;2022-08-01T00:44:15;3.92;;;2.33;;
46487;SDS011;32202;48.780;9.204;2022-08-01T00:46:41;4.70;;;2.47;;
46487;SDS011;32202;48.780;9.204;2022-08-01T00:49:06;3.40;;;2.72;;
46487;SDS011;32202;48.780;9.204;2022-08-01T00:51:32;2.67;;;2.25;;
46487;SDS011;32202;48.780;9.204;2022-08-01T00:53:58;4.55;;;2.47;;
46487;SDS011;32202;48.780;9.204;2022-08-01T00:56:25;2.80;;;2.50;;
46487;SDS011;32202;48.780;9.204;2022-08-01T00:58:51;3.72;;;2.40;;
46487;SDS011;32202;48.780;9.204;2022-08-01T01:01:18;4.13;;;2.25;;
46487;SDS011;32202;48.780;9.204;2022-08-01T01:03:45;4.85;;;2.50;;
46487;SDS011;32202;48.780;9.204;2022-08-01T01:09:08;3.92;;;2.92;;
46487;SDS011;32202;48.780;9.204;2022-08-01T01:11:59;4.28;;;2.55;;
46487;SDS011;32202;48.780;9.204;2022-08-01T01:17:05;3.03;;;2.50;;
46487;SDS011;32202;48.780;9.204;2022-08-01T01:19:33;4.22;;;2.65;;
46487;SDS011;32202;48.780;9.204;2022-08-01T01:30:35;4.65;;;2.53;;
46487;SDS011;32202;48.780;9.204;2022-08-01T01:33:03;4.60;;;2.60;;
46487;SDS011;32202;48.780;9.204;2022-08-01T01:35:32;2.88;;;2.58;;
46487;SDS011;32202;48.780;9.204;2022-08-01T01:38:05;3.13;;;2.20;;
46487;SDS011;32202;48.780;9.204;2022-08-01T01:40:34;4.00;;;2.60;;
46487;SDS011;32202;48.780;9.204;2022-08-01T01:43:02;3.30;;;2.53;;
46487;SDS011;32202;48.780;9.204;2022-08-01T01:45:29;3.55;;;2.20;;
46487;SDS011;32202;48.780;9.204;2022-08-01T01:47:56;3.83;;;2.88;;
46487;SDS011;32202;48.780;9.204;2022-08-01T01:50:23;4.35;;;2.58;;
46487;SDS011;32202;48.780;9.204;2022-08-01T01:52:50;4.57;;;2.50;;
46487;SDS011;32202;48.780;9.204;2022-08-01T01:55:16;2.50;;;2.30;;
46487;SDS011;32202;48.780;9.204;2022-08-01T01:57:46;5.85;;;3.03;;
46487;SDS011;32202;48.780;9.204;2022-08-01T02:00:13;4.75;;;3.03;;
46487;SDS011;32202;48.780;9.204;2022-08-01T02:02:40;3.28;;;2.60;;
46487;SDS011;32202;48.780;9.204;2022-08-01T02:05:07;4.10;;;2.47;;
46487;SDS011;32202;48.780;9.204;2022-08-01T02:07:34;3.25;;;2.75;;
46487;SDS011;32202;48.780;9.204;2022-08-01T02:10:02;3.75;;;2.70;;
46487;SDS011;32202;48.780;9.204;2022-08-01T02:12:29;4.38;;;2.70;;
46487;SDS011;32202;48.780;9.204;2022-08-01T02:14:59;8.30;;;3.23;;
46487;SDS011;32202;48.780;9.204;2022-08-01T02:17:26;3.25;;;2.55;;
46487;SDS011;32202;48.780;9.204;2022-08-01T02:19:53;3.65;;;2.65;;
46487;SDS011;32202;48.780;9.204;2022-08-01T02:22:21;4.00;;;2.70;;
46487;SDS011;32202;48.780;9.204;2022-08-01T02:25:06;3.60;;;2.75;;
46487;SDS011;32202;48.780;9.204;2022-08-01T02:27:59;4.45;;;3.00;;
46487;SDS011;32202;48.780;9.204;2022-08-01T02:30:33;2.47;;;2.28;;
46487;SDS011;32202;48.780;9.204;2022-08-01T02:33:02;4.97;;;2.78;;
46487;SDS011;32202;48.780;9.204;2022-08-01T02:35:32;4.38;;;2.20;;
46487;SDS011;32202;48.780;9.204;2022-08-01T02:38:00;5.03;;;2.90;;
46487;SDS011;32202;48.780;9.204;2022-08-01T02:40:29;3.45;;;2.70;;
46487;SDS011;32202;48.780;9.204;2022-08-01T02:42:57;4.07;;;2.78;;
46487;SDS011;32202;48.780;9.204;2022-08-01T02:45:25;4.10;;;2.67;;
46487;SDS011;32202;48.780;9.204;2022-08-01T02:47:53;4.15;;;2.70;;
46487;SDS011;32202;48.780;9.204;2022-08-01T02:50:23;3.22;;;2.55;;
46487;SDS011;32202;48.780;9.204;2022-08-01T02:52:51;4.18;;;2.60;;
46487;SDS011;32202;48.780;9.204;2022-08-01T02:55:20;2.85;;;2.45;;
46487;SDS011;32202;48.780;9.204;2022-08-01T02:57:47;4.05;;;3.00;;
46487;SDS011;32202;48.780;9.204;2022-08-01T03:00:16;3.33;;;2.72;;
46487;SDS011;32202;48.780;9.204;2022-08-01T03:02:42;4.35;;;2.80;;
46487;SDS011;32202;48.780;9.204;2022-08-01T03:05:09;4.68;;;3.05;;
46487;SDS011;32202;48.780;9.204;2022-08-01T03:07:37;3.05;;;2.60;;
46487;SDS011;32202;48.780;9.204;2022-08-01T03:10:04;3.20;;;2.67;;
46487;SDS011;32202;48.780;9.204;2022-08-01T03:12:31;3.35;;;2.85;;
46487;SDS011;32202;48.780;9.204;2022-08-01T03:14:59;3.55;;;2.47;;
46487;SDS011;32202;48.780;9.204;2022-08-01T03:17:27;3.00;;;2.70;;
46487;SDS011;32202;48.780;9.204;2022-08-01T03:19:55;4.60;;;2.55;;
46487;SDS011;32202;48.780;9.204;2022-08-01T03:22:24;5.30;;;2.85;;
46487;SDS011;32202;48.780;9.204;2022-08-01T03:24:52;4.03;;;2.97;;
46487;SDS011;32202;48.780;9.204;2022-08-01T03:27:19;5.75;;;3.05;;
46487;SDS011;32202;48.780;9.204;2022-08-01T03:29:46;3.72;;;2.55;;
46487;SDS011;32202;48.780;9.204;2022-08-01T03:32:14;3.83;;;2.33;;
46487;SDS011;32202;48.780;9.204;2022-08-01T03:34:41;4.70;;;3.65;;
46487;SDS011;32202;48.780;9.204;2022-08-01T03:37:11;3.95;;;3.00;;
46487;SDS011;32202;48.780;9.204;2022-08-01T03:39:49;4.50;;;2.92;;
46487;SDS011;32202;48.780;9.204;2022-08-01T03:42:22;5.55;;;2.72;;
46487;SDS011;32202;48.780;9.204;2022-08-01T03:44:54;4.68;;;3.17;;
46487;SDS011;32202;48.780;9.204;2022-08-01T03:47:29;6.38;;;2.95;;
46487;SDS011;32202;48.780;9.204;2022-08-01T03:52:24;3.25;;;2.90;;
46487;SDS011;32202;48.780;9.204;2022-08-01T03:54:52;3.30;;;2.63;;
46487;SDS011;32202;48.780;9.204;2022-08-01T03:57:20;4.18;;;2.63;;
46487;SDS011;32202;48.780;9.204;2022-08-01T03:59:46;3.92;;;2.90;;
46487;SDS011;32202;48.780;9.204;2022-08-01T04:02:12;3.35;;;2.60;;
46487;SDS011;32202;48.780;9.204;2022-08-01T04:04:39;3.13;;;2.40;;
46487;SDS011;32202;48.780;9.204;2022-08-01T04:07:20;4.05;;;2.80;;
46487;SDS011;32202;48.780;9.204;2022-08-01T04:09:50;3.30;;;2.47;;
46487;SDS011;32202;48.780;9.204;2022-08-01T04:12:16;3.88;;;2.63;;
46487;SDS011;32202;48.780;9.204;2022-08-01T04:14:42;3.70;;;2.60;;
46487;SDS011;32202;48.780;9.204;2022-08-01T04:17:08;6.20;;;2.60;;
46487;SDS011;32202;48.780;9.204;2022-08-01T04:19:34;3.42;;;2.25;;
46487;SDS011;32202;48.780;9.204;2022-08-01T04:21:59;3.75;;;2.63;;
46487;SDS011;32202;48.780;9.204;2022-08-01T04:24:25;4.10;;;2.38;;
46487;SDS011;32202;48.780;9.204;2022-08-01T04:26:54;3.00;;;2.13;;
46487;SDS011;32202;48.780;9.204;2022-08-01T04:29:23;3.47;;;2.60;;
46487;SDS011;32202;48.780;9.204;2022-08-01T04:31:50;5.07;;;2.55;;
46487;SDS011;32202;48.780;9.204;2022-08-01T04:34:20;2.55;;;2.17;;
46487;SDS011;32202;48.780;9.204;2022-08-01T04:36:47;6.10;;;2.67;;
46487;SDS011;32202;48.780;9.204;2022-08-01T04:39:15;5.10;;;2.67;;
46487;SDS011;32202;48.780;9.204;2022-08-01T04:41:42;6.30;;;2.53;;
46487;SDS011;32202;48.780;9.204;2022-08-01T04:44:12;2.80;;;2.17;;
46487;SDS011;32202;48.780;9.204;2022-08-01T04:46:38;2.85;;;2.03;;
46487;SDS011;32202;48.780;9.204;2022-08-01T04:49:06;2.55;;;2.13;;
46487;SDS011;32202;48.780;9.204;2022-08-01T04:51:33;2.92;;;2.20;;
46487;SDS011;32202;48.780;9.204;2022-08-01T04:53:59;4.40;;;2.40;;
46487;SDS011;32202;48.780;9.204;2022-08-01T04:56:25;4.88;;;2.65;;
46487;SDS011;32202;48.780;9.204;2022-08-01T04:58:51;2.50;;;1.95;;
46487;SDS011;32202;48.780;9.204;2022-08-01T05:01:37;3.38;;;2.30;;
46487;SDS011;32202;48.780;9.204;2022-08-01T05:04:03;3.03;;;2.22;;
46487;SDS011;32202;48.780;9.204;2022-08-01T05:06:28;4.85;;;2.08;;
46487;SDS011;32202;48.780;9.204;2022-08-01T05:08:54;3.03;;;2.15;;
46487;SDS011;32202;48.780;9.204;2022-08-01T05:11:20;3.05;;;2.13;;
46487;SDS011;32202;48.780;9.204;2022-08-01T05:13:47;3.42;;;1.95;;
46487;SDS011;32202;48.780;9.204;2022-08-01T05:16:13;4.07;;;2.17;;
46487;SDS011;32202;48.780;9.204;2022-08-01T05:18:39;3.20;;;2.08;;
46487;SDS011;32202;48.780;9.204;2022-08-01T05:21:04;3.95;;;2.28;;
46487;SDS011;32202;48.780;9.204;2022-08-01T05:23:30;3.50;;;2.35;;
46487;SDS011;32202;48.780;9.204;2022-08-01T05:25:55;5.50;;;2.00;;
46487;SDS011;32202;48.780;9.204;2022-08-01T05:28:21;3.92;;;1.88;;
46487;SDS011;32202;48.780;9.204;2022-08-01T05:30:46;2.35;;;1.90;;
46487;SDS011;32202;48.780;9.204;2022-08-01T05:33:12;5.95;;;2.20;;
46487;SDS011;32202;48.780;9.204;2022-08-01T05:35:37;2.20;;;2.00;;
46487;SDS011;32202;48.780;9.204;2022-08-01T05:38:03;3.45;;;2.00;;
46487;SDS011;32202;48.780;9.204;2022-08-01T05:40:29;3.40;;;1.88;;
46487;SDS011;32202;48.780;9.204;2022-08-01T05:42:54;2.75;;;1.80;;
46487;SDS011;32202;48.780;9.204;2022-08-01T05:45:20;2.88;;;1.85;;
46487;SDS011;32202;48.780;9.204;2022-08-01T05:47:46;3.30;;;1.65;;
46487;SDS011;32202;48.780;9.204;2022-08-01T05:50:11;2.97;;;1.92;;
46487;SDS011;32202;48.780;9.204;2022-08-01T05:52:37;3.42;;;1.80;;
46487;SDS011;32202;48.780;9.204;2022-08-01T05:55:03;3.53;;;1.80;;
46487;SDS011;32202;48.780;9.204;2022-08-01T05:57:29;2.95;;;1.55;;
46487;SDS011;32202;48.780;9.204;2022-08-01T05:59:55;3.00;;;1.42;;
46487;SDS011;32202;48.780;9.204;2022-08-01T06:02:20;2.60;;;1.48;;
46487;SDS011;32202;48.780;9.204;2022-08-01T06:04:46;3.28;;;1.85;;
46487;SDS011;32202;48.780;9.204;2022-08-01T06:07:12;3.80;;;1.50;;
46487;SDS011;32202;48.780;9.204;2022-08-01T06:09:37;2.17;;;1.10;;
46487;SDS011;32202;48.780;9.204;2022-08-01T06:12:03;2.53;;;1.60;;
46487;SDS011;32202;48.780;9.204;2022-08-01T06:14:29;3.05;;;1.73;;
46487;SDS011;32202;48.780;9.204;2022-08-01T06:16:54;3.05;;;1.25;;
46487;SDS011;32202;48.780;9.204;2022-08-01T06:19:20;6.85;;;5.40;;
46487;SDS011;32202;48.780;9.204;2022-08-01T06:21:46;1.92;;;1.52;;
46487;SDS011;32202;48.780;9.204;2022-08-01T06:24:11;1.63;;;1.00;;
46487;SDS011;32202;48.780;9.204;2022-08-01T06:26:37;3.67;;;1.27;;
46487;SDS011;32202;48.780;9.204;2022-08-01T06:29:03;2.35;;;0.90;;
46487;SDS011;32202;48.780;9.204;2022-08-01T06:31:28;2.88;;;0.93;;
46487;SDS011;32202;48.780;9.204;2022-08-01T06:33:56;1.95;;;0.65;;
46487;SDS011;32202;48.780;9.204;2022-08-01T06:36:22;1.33;;;0.65;;
46487;SDS011;32202;48.780;9.204;2022-08-01T06:38:47;2.22;;;1.00;;
46487;SDS011;32202;48.780;9.204;2022-08-01T06:41:13;2.22;;;0.90;;
46487;SDS011;32202;48.780;9.204;2022-08-01T06:43:38;4.55;;;1.35;;
46487;SDS011;32202;48.780;9.204;2022-08-01T06:46:04;3.00;;;1.50;;
46487;SDS011;32202;48.780;9.204;2022-08-01T06:48:30;2.28;;;1.10;;
46487;SDS011;32202;48.780;9.204;2022-08-01T06:50:55;2.90;;;1.00;;
46487;SDS011;32202;48.780;9.204;2022-08-01T06:53:36;1.00;;;0.80;;
46487;SDS011;32202;48.780;9.204;2022-08-01T06:56:02;3.58;;;1.20;;
46487;SDS011;32202;48.780;9.204;2022-08-01T06:58:28;2.40;;;1.13;;
46487;SDS011;32202;48.780;9.204;2022-08-01T07:00:54;0.80;;;0.80;;
46487;SDS011;32202;48.780;9.204;2022-08-01T07:03:20;1.67;;;1.02;;
46487;SDS011;32202;48.780;9.204;2022-08-01T07:05:45;1.48;;;0.98;;
46487;SDS011;32202;48.780;9.204;2022-08-01T07:08:11;1.73;;;1.00;;
46487;SDS011;32202;48.780;9.204;2022-08-01T07:10:36;2.03;;;1.10;;
46487;SDS011;32202;48.780;9.204;2022-08-01T07:13:02;2.83;;;1.20;;
46487;SDS011;32202;48.780;9.204;2022-08-01T07:15:27;1.98;;;1.42;;
46487;SDS011;32202;48.780;9.204;2022-08-01T07:17:53;1.30;;;1.10;;
46487;SDS011;32202;48.780;9.204;2022-08-01T07:20:19;2.60;;;1.15;;
46487;SDS011;32202;48.780;9.204;2022-08-01T07:22:44;3.20;;;1.10;;
46487;SDS011;32202;48.780;9.204;2022-08-01T07:25:10;3.38;;;1.25;;
46487;SDS011;32202;48.780;9.204;2022-08-01T07:27:36;2.97;;;1.58;;
46487;SDS011;32202;48.780;9.204;2022-08-01T07:30:02;1.33;;;1.08;;
46487;SDS011;32202;48.780;9.204;2022-08-01T07:32:29;2.35;;;1.40;;
46487;SDS011;32202;48.780;9.204;2022-08-01T07:34:55;3.00;;;0.90;;
46487;SDS011;32202;48.780;9.204;2022-08-01T07:37:20;1.45;;;1.25;;
46487;SDS011;32202;48.780;9.204;2022-08-01T07:39:46;3.05;;;1.42;;
46487;SDS011;32202;48.780;9.204;2022-08-01T07:42:12;1.55;;;0.90;;
46487;SDS011;32202;48.780;9.204;2022-08-01T07:44:37;3.22;;;1.17;;
46487;SDS011;32202;48.780;9.204;2022-08-01T07:47:05;1.02;;;0.90;;
46487;SDS011;32202;48.780;9.204;2022-08-01T07:49:31;1.23;;;1.10;;
46487;SDS011;32202;48.780;9.204;2022-08-01T07:51:56;2.92;;;1.85;;
46487;SDS011;32202;48.780;9.204;2022-08-01T07:54:22;2.25;;;1.33;;
46487;SDS011;32202;48.780;9.204;2022-08-01T07:56:49;3.10;;;1.13;;
46487;SDS011;32202;48.780;9.204;2022-08-01T07:59:15;1.38;;;1.25;;
46487;SDS011;32202;48.780;9.204;2022-08-01T08:01:40;2.33;;;1.83;;
46487;SDS011;32202;48.780;9.204;2022-08-01T08:04:06;2.15;;;1.33;;
46487;SDS011;32202;48.780;9.204;2022-08-01T08:06:32;2.33;;;1.55;;
46487;SDS011;32202;48.780;9.204;2022-08-01T08:08:58;2.33;;;1.20;;
46487;SDS011;32202;48.780;9.204;2022-08-01T08:11:23;1.73;;;1.15;;
46487;SDS011;32202;48.780;9.204;2022-08-01T08:13:49;1.25;;;1.10;;
46487;SDS011;32202;48.780;9.204;2022-08-01T08:16:14;1.98;;;1.35;;
46487;SDS011;32202;48.780;9.204;2022-08-01T08:18:40;2.22;;;1.60;;
46487;SDS011;32202;48.780;9.204;2022-08-01T08:21:06;3.70;;;1.80;;
46487;SDS011;32202;48.780;9.204;2022-08-01T08:23:31;3.65;;;1.80;;
46487;SDS011;32202;48.780;9.204;2022-08-01T08:26:15;1.52;;;1.42;;
46487;SDS011;32202;48.780;9.204;2022-08-01T08:28:41;3.28;;;1.40;;
46487;SDS011;32202;48.780;9.204;2022-08-01T08:31:07;2.00;;;1.40;;
46487;SDS011;32202;48.780;9.204;2022-08-01T08:33:33;3.70;;;1.67;;
46487;SDS011;32202;48.780;9.204;2022-08-01T08:35:58;2.67;;;1.40;;
46487;SDS011;32202;48.780;9.204;2022-08-01T08:38:24;2.72;;;1.67;;
46487;SDS011;32202;48.780;9.204;2022-08-01T08:40:52;2.55;;;1.13;;
46487;SDS011;32202;48.780;9.204;2022-08-01T08:43:18;1.48;;;1.38;;
46487;SDS011;32202;48.780;9.204;2022-08-01T08:45:44;2.05;;;1.75;;
46487;SDS011;32202;48.780;9.204;2022-08-01T08:48:10;3.97;;;1.52;;
46487;SDS011;32202;48.780;9.204;2022-08-01T08:50:37;5.57;;;1.77;;
46487;SDS011;32202;48.780;9.204;2022-08-01T08:53:03;2.13;;;1.90;;
46487;SDS011;32202;48.780;9.204;2022-08-01T08:55:29;2.63;;;2.10;;
46487;SDS011;32202;48.780;9.204;2022-08-01T08:57:55;3.50;;;1.70;;
46487;SDS011;32202;48.780;9.204;2022-08-01T09:00:22;3.03;;;2.08;;
46487;SDS011;32202;48.780;9.204;2022-08-01T09:02:48;2.67;;;2.03;;
46487;SDS011;32202;48.780;9.204;2022-08-01T09:05:20;3.72;;;2.10;;
46487;SDS011;32202;48.780;9.204;2022-08-01T09:07:51;3.88;;;3.00;;
46487;SDS011;32202;48.780;9.204;2022-08-01T09:10:18;3.80;;;3.28;;
46487;SDS011;32202;48.780;9.204;2022-08-01T09:15:39;7.57;;;4.28;;
46487;SDS011;32202;48.780;9.204;2022-08-01T09:23:40;6.00;;;4.30;;
46487;SDS011;32202;48.780;9.204;2022-08-01T09:26:15;5.63;;;4.18;;
46487;SDS011;32202;48.780;9.204;2022-08-01T09:28:42;5.53;;;4.40;;
46487;SDS011;32202;48.780;9.204;2022-08-01T09:31:10;5.53;;;4.50;;
46487;SDS011;32202;48.780;9.204;2022-08-01T09:33:53;7.15;;;4.45;;
46487;SDS011;32202;48.780;9.204;2022-08-01T09:36:25;5.35;;;3.90;;
46487;SDS011;32202;48.780;9.204;2022-08-01T09:38:54;7.78;;;4.30;;
46487;SDS011;32202;48.780;9.204;2022-08-01T09:41:31;7.63;;;5.32;;
46487;SDS011;32202;48.780;9.204;2022-08-01T09:43:57;5.93;;;3.80;;
46487;SDS011;32202;48.780;9.204;2022-08-01T09:46:23;7.10;;;4.25;;
46487;SDS011;32202;48.780;9.204;2022-08-01T09:48:59;10.27;;;4.70;;
46487;SDS011;32202;48.780;9.204;2022-08-01T09:51:27;7.05;;;4.25;;
46487;SDS011;32202;48.780;9.204;2022-08-01T09:53:54;5.93;;;3.20;;
46487;SDS011;32202;48.780;9.204;2022-08-01T09:56:21;3.80;;;3.38;;
46487;SDS011;32202;48.780;9.204;2022-08-01T09:58:57;4.30;;;3.20;;
46487;SDS011;32202;48.780;9.204;2022-08-01T10:01:24;6.05;;;4.05;;
46487;SDS011;32202;48.780;9.204;2022-08-01T10:06:34;5.15;;;3.75;;
46487;SDS011;32202;48.780;9.204;2022-08-01T10:09:01;4.28;;;3.00;;
46487;SDS011;32202;48.780;9.204;2022-08-01T10:11:28;5.22;;;3.10;;
46487;SDS011;32202;48.780;9.204;2022-08-01T10:13:55;4.40;;;3.40;;
46487;SDS011;32202;48.780;9.204;2022-08-01T10:16:23;3.60;;;3.20;;
46487;SDS011;32202;48.780;9.204;2022-08-01T10:18:51;4.05;;;3.65;;
46487;SDS011;32202;48.780;9.204;2022-08-01T10:21:18;3.53;;;2.85;;
46487;SDS011;32202;48.780;9.204;2022-08-01T10:23:46;5.60;;;3.22;;
46487;SDS011;32202;48.780;9.204;2022-08-01T10:26:12;2.70;;;2.33;;
46487;SDS011;32202;48.780;9.204;2022-08-01T10:28:38;3.28;;;2.80;;
46487;SDS011;32202;48.780;9.204;2022-08-01T10:31:06;3.17;;;2.63;;
46487;SDS011;32202;48.780;9.204;2022-08-01T10:33:32;3.17;;;2.85;;
46487;SDS011;32202;48.780;9.204;2022-08-01T10:36:00;2.75;;;2.55;;
46487;SDS011;32202;48.780;9.204;2022-08-01T10:38:27;2.97;;;2.42;;
46487;SDS011;32202;48.780;9.204;2022-08-01T10:40:52;2.50;;;2.30;;
46487;SDS011;32202;48.780;9.204;2022-08-01T10:43:21;2.20;;;2.00;;
46487;SDS011;32202;48.780;9.204;2022-08-01T10:45:47;5.20;;;2.60;;
46487;SDS011;32202;48.780;9.204;2022-08-01T10:50:41;2.13;;;1.90;;
46487;SDS011;32202;48.780;9.204;2022-08-01T10:55:47;2.47;;;1.85;;
46487;SDS011;32202;48.780;9.204;2022-08-01T10:58:13;2.85;;;2.30;;
46487;SDS011;32202;48.780;9.204;2022-08-01T11:00:44;4.70;;;3.08;;
46487;SDS011;32202;48.780;9.204;2022-08-01T11:03:10;3.42;;;2.97;;
46487;SDS011;32202;48.780;9.204;2022-08-01T11:05:36;5.15;;;3.38;;
46487;SDS011;32202;48.780;9.204;2022-08-01T11:08:03;3.97;;;2.97;;
46487;SDS011;32202;48.780;9.204;2022-08-01T11:13:05;2.47;;;1.83;;
46487;SDS011;32202;48.780;9.204;2022-08-01T11:15:36;2.35;;;2.05;;
46487;SDS011;32202;48.780;9.204;2022-08-01T11:18:04;3.00;;;2.50;;
46487;SDS011;32202;48.780;9.204;2022-08-01T11:20:55;2.92;;;2.30;;
46487;SDS011;32202;48.780;9.204;2022-08-01T11:23:23;5.43;;;2.90;;
46487;SDS011;32202;48.780;9.204;2022-08-01T11:30:44;4.80;;;3.00;;
46487;SDS011;32202;48.780;9.204;2022-08-01T11:33:11;3.53;;;2.60;;
46487;SDS011;32202;48.780;9.204;2022-08-01T11:36:23;4.63;;;3.45;;
46487;SDS011;32202;48.780;9.204;2022-08-01T11:38:40;5.40;;;3.35;;
46487;SDS011;32202;48.780;9.204;2022-08-01T11:41:30;3.47;;;3.10;;
46487;SDS011;32202;48.780;9.204;2022-08-01T11:46:56;3.17;;;2.50;;
46487;SDS011;32202;48.780;9.204;2022-08-01T11:52:05;4.13;;;2.42;;
46487;SDS011;32202;48.780;9.204;2022-08-01T11:54:40;2.28;;;2.08;;
46487;SDS011;32202;48.780;9.204;2022-08-01T11:57:09;6.05;;;2.38;;
46487;SDS011;32202;48.780;9.204;2022-08-01T11:59:38;2.30;;;2.10;;
46487;SDS011;32202;48.780;9.204;2022-08-01T12:04:57;3.95;;;3.00;;
46487;SDS011;32202;48.780;9.204;2022-08-01T12:07:24;3.00;;;2.33;;
46487;SDS011;32202;48.780;9.204;2022-08-01T12:09:58;3.60;;;2.35;;
46487;SDS011;32202;48.780;9.204;2022-08-01T12:12:26;2.95;;;2.60;;
46487;SDS011;32202;48.780;9.204;2022-08-01T12:14:53;2.75;;;2.42;;
46487;SDS011;32202;48.780;9.204;2022-08-01T12:17:20;2.95;;;1.90;;
46487;SDS011;32202;48.780;9.204;2022-08-01T12:19:52;3.03;;;2.40;;
46487;SDS011;32202;48.780;9.204;2022-08-01T12:22:17;3.05;;;2.75;;
46487;SDS011;32202;48.780;9.204;2022-08-01T12:24:48;4.80;;;2.70;;
46487;SDS011;32202;48.780;9.204;2022-08-01T12:27:23;4.10;;;2.08;;
46487;SDS011;32202;48.780;9.204;2022-08-01T12:29:52;2.17;;;1.90;;
46487;SDS011;32202;48.780;9.204;2022-08-01T12:34:53;3.03;;;2.40;;
46487;SDS011;32202;48.780;9.204;2022-08-01T12:37:20;5.65;;;2.55;;
46487;SDS011;32202;48.780;9.204;2022-08-01T12:39:46;2.90;;;2.60;;
46487;SDS011;32202;48.780;9.204;2022-08-01T12:42:12;4.07;;;2.92;;
46487;SDS011;32202;48.780;9.204;2022-08-01T12:44:39;2.72;;;2.50;;
46487;SDS011;32202;48.780;9.204;2022-08-01T12:47:06;2.55;;;2.15;;
46487;SDS011;32202;48.780;9.204;2022-08-01T12:49:35;3.45;;;2.03;;
46487;SDS011;32202;48.780;9.204;2022-08-01T12:52:01;3.22;;;2.25;;
46487;SDS011;32202;48.780;9.204;2022-08-01T12:54:27;5.30;;;2.03;;
46487;SDS011;32202;48.780;9.204;2022-08-01T12:56:53;3.83;;;1.73;;
46487;SDS011;32202;48.780;9.204;2022-08-01T12:59:23;2.22;;;1.92;;
46487;SDS011;32202;48.780;9.204;2022-08-01T13:01:54;2.60;;;2.28;;
46487;SDS011;32202;48.780;9.204;2022-08-01T13:04:21;5.10;;;2.05;;
46487;SDS011;32202;48.780;9.204;2022-08-01T13:06:48;2.85;;;1.90;;
46487;SDS011;32202;48.780;9.204;2022-08-01T13:09:17;3.72;;;1.95;;
46487;SDS011;32202;48.780;9.204;2022-08-01T13:11:43;2.25;;;1.88;;
46487;SDS011;32202;48.780;9.204;2022-08-01T13:14:10;2.83;;;2.40;;
46487;SDS011;32202;48.780;9.204;2022-08-01T13:16:52;3.80;;;2.03;;
46487;SDS011;32202;48.780;9.204;2022-08-01T13:19:18;3.13;;;2.17;;
46487;SDS011;32202;48.780;9.204;2022-08-01T13:21:53;4.90;;;2.00;;
46487;SDS011;32202;48.780;9.204;2022-08-01T13:24:27;3.17;;;2.45;;
46487;SDS011;32202;48.780;9.204;2022-08-01T13:26:55;6.25;;;2.47;;
46487;SDS011;32202;48.780;9.204;2022-08-01T13:29:43;3.60;;;2.00;;
46487;SDS011;32202;48.780;9.204;2022-08-01T13:32:20;4.47;;;2.00;;
46487;SDS011;32202;48.780;9.204;2022-08-01T13:34:47;2.70;;;1.77;;
46487;SDS011;32202;48.780;9.204;2022-08-01T13:37:13;3.33;;;1.90;;
46487;SDS011;32202;48.780;9.204;2022-08-01T13:39:38;4.15;;;2.25;;
46487;SDS011;32202;48.780;9.204;2022-08-01T13:42:15;2.85;;;2.10;;
46487;SDS011;32202;48.780;9.204;2022-08-01T13:44:41;3.33;;;2.30;;
46487;SDS011;32202;48.780;9.204;2022-08-01T13:47:10;3.20;;;1.92;;
46487;SDS011;32202;48.780;9.204;2022-08-01T13:49:35;4.05;;;2.60;;
46487;SDS011;32202;48.780;9.204;2022-08-01T13:52:01;3.70;;;1.83;;
46487;SDS011;32202;48.780;9.204;2022-08-01T13:54:27;2.47;;;1.92;;
46487;SDS011;32202;48.780;9.204;2022-08-01T13:56:53;3.20;;;1.88;;
46487;SDS011;32202;48.780;9.204;2022-08-01T13:59:19;4.28;;;1.67;;
46487;SDS011;32202;48.780;9.204;2022-08-01T14:01:45;3.72;;;2.05;;
46487;SDS011;32202;48.780;9.204;2022-08-01T14:04:11;4.63;;;2.00;;
46487;SDS011;32202;48.780;9.204;2022-08-01T14:06:36;4.18;;;1.60;;
46487;SDS011;32202;48.780;9.204;2022-08-01T14:09:05;3.05;;;2.10;;
46487;SDS011;32202;48.780;9.204;2022-08-01T14:11:31;2.42;;;2.03;;
46487;SDS011;32202;48.780;9.204;2022-08-01T14:13:57;3.08;;;1.70;;
46487;SDS011;32202;48.780;9.204;2022-08-01T14:16:23;2.88;;;2.10;;
46487;SDS011;32202;48.780;9.204;2022-08-01T14:18:49;3.38;;;1.95;;
46487;SDS011;32202;48.780;9.204;2022-08-01T14:21:15;5.13;;;2.17;;
46487;SDS011;32202;48.780;9.204;2022-08-01T14:23:40;3.30;;;1.67;;
46487;SDS011;32202;48.780;9.204;2022-08-01T14:26:09;2.75;;;1.63;;
46487;SDS011;32202;48.780;9.204;2022-08-01T14:28:35;1.80;;;1.70;;
46487;SDS011;32202;48.780;9.204;2022-08-01T14:31:02;5.85;;;1.90;;
46487;SDS011;32202;48.780;9.204;2022-08-01T14:33:28;3.95;;;2.42;;
46487;SDS011;32202;48.780;9.204;2022-08-01T14:35:55;3.78;;;2.00;;
46487;SDS011;32202;48.780;9.204;2022-08-01T14:38:21;3.50;;;1.95;;
46487;SDS011;32202;48.780;9.204;2022-08-01T14:40:46;3.28;;;1.92;;
46487;SDS011;32202;48.780;9.204;2022-08-01T14:43:16;2.40;;;2.00;;
46487;SDS011;32202;48.780;9.204;2022-08-01T14:45:44;2.80;;;1.95;;
46487;SDS011;32202;48.780;9.204;2022-08-01T14:48:14;3.08;;;2.30;;
46487;SDS011;32202;48.780;9.204;2022-08-01T14:50:40;3.38;;;2.03;;
46487;SDS011;32202;48.780;9.204;2022-08-01T14:53:05;2.05;;;1.80;;
46487;SDS011;32202;48.780;9.204;2022-08-01T14:55:31;2.05;;;1.65;;
46487;SDS011;32202;48.780;9.204;2022-08-01T14:57:57;2.75;;;1.92;;
46487;SDS011;32202;48.780;9.204;2022-08-01T15:00:22;4.82;;;2.00;;
46487;SDS011;32202;48.780;9.204;2022-08-01T15:02:48;3.15;;;1.83;;
46487;SDS011;32202;48.780;9.204;2022-08-01T15:05:13;5.10;;;2.40;;
46487;SDS011;32202;48.780;9.204;2022-08-01T15:07:39;6.13;;;2.40;;
46487;SDS011;32202;48.780;9.204;2022-08-01T15:10:05;3.60;;;1.90;;
46487;SDS011;32202;48.780;9.204;2022-08-01T15:12:31;2.92;;;2.58;;
46487;SDS011;32202;48.780;9.204;2022-08-01T15:14:58;4.95;;;2.40;;
46487;SDS011;32202;48.780;9.204;2022-08-01T15:17:25;2.58;;;1.98;;
46487;SDS011;32202;48.780;9.204;2022-08-01T15:19:57;2.78;;;1.67;;
46487;SDS011;32202;48.780;9.204;2022-08-01T15:22:30;1.90;;;1.67;;
46487;SDS011;32202;48.780;9.204;2022-08-01T15:24:57;3.10;;;1.92;;
46487;SDS011;32202;48.780;9.204;2022-08-01T15:27:25;3.50;;;2.03;;
46487;SDS011;32202;48.780;9.204;2022-08-01T15:29:51;3.45;;;2.00;;
46487;SDS011;32202;48.780;9.204;2022-08-01T15:32:17;2.50;;;1.75;;
46487;SDS011;32202;48.780;9.204;2022-08-01T15:34:43;2.50;;;2.00;;
46487;SDS011;32202;48.780;9.204;2022-08-01T15:37:09;4.70;;;2.10;;
46487;SDS011;32202;48.780;9.204;2022-08-01T15:39:36;2.22;;;1.70;;
46487;SDS011;32202;48.780;9.204;2022-08-01T15:42:04;5.82;;;2.13;;